createdAt,value
2022-10-22T00:01:13.433Z,100883.16
2022-10-22T00:03:49.230Z,100880.53
2022-10-22T00:09:09.053Z,100879.69
2022-10-22T00:12:04.543Z,100886.81
2022-10-22T00:14:45.483Z,100885.03
2022-10-22T00:17:17.677Z,100876.34
2022-10-22T00:20:14.050Z,100883.38
2022-10-22T00:22:49.889Z,100897.47
2022-10-22T00:25:23.160Z,100898.41
2022-10-22T00:27:54.571Z,100892.28
2022-10-22T00:30:28.542Z,100903.72
2022-10-22T00:33:12.035Z,100909.00
2022-10-22T00:36:01.337Z,100897.63
2022-10-22T00:38:31.397Z,100913.44
2022-10-22T00:41:07.627Z,100916.97
2022-10-22T00:44:13.076Z,100921.34
2022-10-22T00:46:49.086Z,100916.97
2022-10-22T00:49:38.923Z,100927.50
2022-10-22T00:52:13.561Z,100923.09
2022-10-22T00:54:49.259Z,100927.50
2022-10-22T00:57:19.986Z,100927.50
2022-10-22T00:59:52.026Z,100934.50
2022-10-22T01:02:30.990Z,100927.50
2022-10-22T01:07:48.794Z,100924.00
2022-10-22T01:10:50.232Z,100909.16
2022-10-22T01:13:33.200Z,100917.00
2022-10-22T01:16:15.514Z,100923.13
2022-10-22T01:18:56.118Z,100923.13
2022-10-22T01:21:51.252Z,100925.72
2022-10-22T01:24:51.614Z,100919.59
2022-10-22T01:27:58.766Z,100916.16
2022-10-22T01:30:35.462Z,100928.44
2022-10-22T01:33:08.263Z,100919.69
2022-10-22T01:35:42.206Z,100921.44
2022-10-22T01:38:15.586Z,100927.63
2022-10-22T01:40:49.228Z,100918.81
2022-10-22T01:43:18.599Z,100913.56
2022-10-22T01:45:58.263Z,100921.47
2022-10-22T01:48:47.310Z,100927.59
2022-10-22T01:51:40.310Z,100934.63
2022-10-22T01:54:29.317Z,100920.59
2022-10-22T02:00:06.778Z,100923.19
2022-10-22T02:03:00.767Z,100932.81
2022-10-22T02:05:38.019Z,100915.25
2022-10-22T02:08:11.574Z,100920.50
2022-10-22T02:10:51.433Z,100927.50
2022-10-22T02:16:17.054Z,100920.44
2022-10-22T02:18:52.664Z,100920.47
2022-10-22T02:24:14.610Z,100920.47
2022-10-22T02:26:53.349Z,100902.13
2022-10-22T02:29:40.572Z,100916.09
2022-10-22T02:32:16.228Z,100916.97
2022-10-22T02:34:51.438Z,100917.88
2022-10-22T02:37:22.021Z,100922.31
2022-10-22T02:40:06.768Z,100917.97
2022-10-22T02:42:38.223Z,100928.50
2022-10-22T02:45:24.303Z,100918.03
2022-10-22T02:48:02.397Z,100911.94
2022-10-22T02:50:37.749Z,100926.81
2022-10-22T02:53:20.163Z,100921.59
2022-10-22T02:55:50.384Z,100922.47
2022-10-22T02:58:19.720Z,100920.75
2022-10-22T03:00:50.285Z,100924.31
2022-10-22T03:03:20.163Z,100916.41
2022-10-22T03:05:51.862Z,100920.78
2022-10-22T03:08:22.952Z,100921.66
2022-10-22T03:10:53.434Z,100926.06
2022-10-22T03:13:22.933Z,100921.72
2022-10-22T03:15:52.643Z,100920.84
2022-10-22T03:18:20.833Z,100912.06
2022-10-22T03:20:50.715Z,100913.81
2022-10-22T03:23:21.762Z,100919.97
2022-10-22T03:25:50.965Z,100919.09
2022-10-22T03:28:22.238Z,100921.75
2022-10-22T03:30:53.996Z,100919.09
2022-10-22T03:33:32.160Z,100921.78
2022-10-22T03:36:03.639Z,100930.59
2022-10-22T03:38:33.843Z,100927.94
2022-10-22T03:41:02.699Z,100920.13
2022-10-22T03:43:33.776Z,100935.84
2022-10-22T03:46:03.475Z,100940.22
2022-10-22T03:48:36.569Z,100941.09
2022-10-22T03:51:06.915Z,100941.97
2022-10-22T03:53:38.324Z,100938.47
2022-10-22T03:56:18.564Z,100943.75
2022-10-22T03:58:46.863Z,100938.50
2022-10-22T04:01:18.039Z,100945.53
2022-10-22T04:06:45.296Z,100945.53
2022-10-22T04:09:13.803Z,100955.16
2022-10-22T04:11:44.021Z,100949.03
2022-10-22T04:14:13.947Z,100953.41
2022-10-22T04:16:45.382Z,100964.81
2022-10-22T04:19:15.381Z,100959.53
2022-10-22T04:21:46.214Z,100958.66
2022-10-22T04:24:16.488Z,100951.66
2022-10-22T04:26:46.015Z,100942.91
2022-10-22T04:29:16.499Z,100956.00
2022-10-22T04:31:45.252Z,100953.38
2022-10-22T04:34:16.311Z,100945.53
2022-10-22T04:36:47.686Z,100957.78
2022-10-22T04:39:21.261Z,100956.88
2022-10-22T04:41:56.217Z,100945.53
2022-10-22T04:44:29.787Z,100959.50
2022-10-22T04:46:59.171Z,100963.00
2022-10-22T04:49:28.767Z,100960.38
2022-10-22T04:52:04.732Z,100963.00
2022-10-22T04:54:34.601Z,100966.50
2022-10-22T04:57:19.496Z,100965.63
2022-10-22T04:59:47.694Z,100968.25
2022-10-22T05:02:17.156Z,100951.63
2022-10-22T05:04:46.328Z,100955.13
2022-10-22T05:07:17.800Z,100944.63
2022-10-22T05:09:48.471Z,100959.47
2022-10-22T05:12:24.250Z,100959.47
2022-10-22T05:14:54.231Z,100964.75
2022-10-22T05:17:27.785Z,100959.47
2022-10-22T05:19:56.651Z,100961.25
2022-10-22T05:22:27.685Z,100952.50
2022-10-22T05:25:17.700Z,100968.28
2022-10-22T05:28:04.569Z,100955.19
2022-10-22T05:30:36.313Z,100977.06
2022-10-22T05:33:06.265Z,100970.94
2022-10-22T05:35:46.589Z,100968.31
2022-10-22T05:38:16.629Z,100970.06
2022-10-22T05:40:46.765Z,100967.44
2022-10-22T05:43:20.181Z,100977.94
2022-10-22T05:45:50.230Z,100973.59
2022-10-22T05:48:19.979Z,100980.59
2022-10-22T05:50:51.696Z,100973.59
2022-10-22T05:53:25.436Z,100969.22
2022-10-22T05:55:53.999Z,100967.47
2022-10-22T05:58:22.508Z,100964.84
2022-10-22T06:00:51.758Z,100985.84
2022-10-22T06:03:22.618Z,100984.97
2022-10-22T06:05:53.288Z,100980.56
2022-10-22T06:08:23.801Z,100976.22
2022-10-22T06:10:59.750Z,100971.81
2022-10-22T06:13:28.388Z,100979.69
2022-10-22T06:15:58.513Z,100979.69
2022-10-22T06:18:34.074Z,100990.19
2022-10-22T06:21:09.354Z,100978.78
2022-10-22T06:26:26.500Z,100989.28
2022-10-22T06:28:57.176Z,100991.00
2022-10-22T06:31:27.486Z,100992.72
2022-10-22T06:33:59.407Z,100997.97
2022-10-22T06:36:27.904Z,100988.34
2022-10-22T06:39:17.515Z,101000.59
2022-10-22T06:41:48.044Z,100999.69
2022-10-22T06:44:18.846Z,101000.56
2022-10-22T06:47:10.918Z,101006.69
2022-10-22T06:49:42.779Z,100997.03
2022-10-22T06:52:11.108Z,100997.06
2022-10-22T06:57:47.362Z,101012.78
2022-10-22T07:00:25.459Z,101004.84
2022-10-22T07:02:59.177Z,101007.47
2022-10-22T07:05:56.540Z,101004.84
2022-10-22T07:08:36.850Z,101017.03
2022-10-22T07:11:22.394Z,101021.38
2022-10-22T07:17:10.526Z,101022.13
2022-10-22T07:19:48.415Z,101036.97
2022-10-22T07:22:39.081Z,101036.91
2022-10-22T07:25:25.232Z,101036.84
2022-10-22T07:27:57.644Z,101044.63
2022-10-22T07:30:33.400Z,101051.56
2022-10-22T07:33:09.372Z,101041.03
2022-10-22T07:35:42.947Z,101047.09
2022-10-22T07:38:18.142Z,101057.59
2022-10-22T07:40:53.251Z,101063.72
2022-10-22T07:43:48.310Z,101053.19
2022-10-22T07:49:34.809Z,101062.69
2022-10-22T07:52:14.314Z,101065.25
2022-10-22T07:55:09.853Z,101065.22
2022-10-22T07:57:53.169Z,101065.16
2022-10-22T08:01:02.127Z,101073.00
2022-10-22T08:03:38.583Z,101067.69
2022-10-22T08:06:22.186Z,101068.47
2022-10-22T08:09:16.542Z,101063.09
2022-10-22T08:11:47.912Z,101087.53
2022-10-22T08:17:26.941Z,101084.63
2022-10-22T08:20:09.595Z,101090.69
2022-10-22T08:22:48.741Z,101092.41
2022-10-22T08:25:22.218Z,101093.16
2022-10-22T08:27:55.505Z,101091.41
2022-10-22T08:30:34.399Z,101094.81
2022-10-22T08:33:07.406Z,101100.84
2022-10-22T08:35:44.319Z,101100.78
2022-10-22T08:38:21.481Z,101105.09
2022-10-22T08:40:59.939Z,101110.34
2022-10-22T08:43:51.168Z,101108.53
2022-10-22T08:47:09.377Z,101100.53
2022-10-22T08:52:44.065Z,101114.50
2022-10-22T08:58:06.072Z,101111.81
2022-10-22T09:00:50.505Z,101126.66
2022-10-22T09:03:57.507Z,101114.34
2022-10-22T09:10:16.357Z,101127.31
2022-10-22T09:12:52.135Z,101119.28
2022-10-22T09:15:23.763Z,101127.97
2022-10-22T09:18:27.383Z,101124.31
2022-10-22T09:21:06.432Z,101131.22
2022-10-22T09:24:09.441Z,101138.16
2022-10-22T09:26:52.041Z,101135.38
2022-10-22T09:29:43.092Z,101134.38
2022-10-22T09:32:14.059Z,101129.69
2022-10-22T09:35:05.747Z,101133.94
2022-10-22T09:37:47.130Z,101137.38
2022-10-22T09:43:21.921Z,101141.63
2022-10-22T09:46:20.561Z,101140.56
2022-10-22T09:49:08.649Z,101139.53
2022-10-22T09:52:15.139Z,101140.19
2022-10-22T09:54:50.915Z,101148.84
2022-10-22T09:57:30.371Z,101152.91
2022-10-22T10:00:10.089Z,101165.75
2022-10-22T10:02:42.858Z,101160.03
2022-10-22T10:05:25.849Z,101160.69
2022-10-22T10:07:54.551Z,101173.84
2022-10-22T10:10:42.117Z,101162.25
2022-10-22T10:16:51.279Z,101177.13
2022-10-22T10:19:48.061Z,101183.19
2022-10-22T10:22:34.633Z,101186.44
2022-10-22T10:25:40.866Z,101177.72
2022-10-22T10:28:36.054Z,101204.16
2022-10-22T10:31:19.193Z,101191.00
2022-10-22T10:33:58.213Z,101199.91
2022-10-22T10:36:37.233Z,101203.53
2022-10-22T10:40:08.785Z,101212.38
2022-10-22T10:42:47.507Z,101206.06
2022-10-22T10:45:29.469Z,101202.59
2022-10-22T10:48:38.319Z,101211.41
2022-10-22T10:57:24.587Z,101209.28
2022-10-22T11:00:06.005Z,101202.16
2022-10-22T11:03:41.944Z,101189.66
2022-10-22T11:06:13.603Z,101212.28
2022-10-22T11:08:50.022Z,101223.75
2022-10-22T11:11:23.629Z,101213.28
2022-10-22T11:13:59.191Z,101238.22
2022-10-22T11:16:41.424Z,101234.97
2022-10-22T11:19:33.181Z,101226.94
2022-10-22T11:22:16.373Z,101237.69
2022-10-22T11:24:52.037Z,101237.84
2022-10-22T11:27:31.715Z,101239.63
2022-10-22T11:30:05.177Z,101244.94
2022-10-22T11:32:34.465Z,101247.56
2022-10-22T11:35:09.311Z,101243.16
2022-10-22T11:37:39.162Z,101239.03
2022-10-22T11:43:09.926Z,101250.56
2022-10-22T11:45:40.925Z,101245.66
2022-10-22T11:48:18.862Z,101259.19
2022-10-22T11:50:53.058Z,101250.56
2022-10-22T11:53:31.784Z,101247.16
2022-10-22T11:56:21.492Z,101247.16
2022-10-22T12:01:44.496Z,101239.03
2022-10-22T12:04:24.323Z,101240.63
2022-10-22T12:07:03.121Z,101230.78
2022-10-22T12:09:34.478Z,101246.44
2022-10-22T12:12:22.396Z,101251.31
2022-10-22T12:14:56.752Z,101245.56
2022-10-22T12:17:48.571Z,101243.59
2022-10-22T12:20:20.574Z,101251.41
2022-10-22T12:22:53.766Z,101241.75
2022-10-22T12:25:35.509Z,101248.81
2022-10-22T12:28:06.302Z,101248.03
2022-10-22T12:30:35.956Z,101252.53
2022-10-22T12:33:07.798Z,101243.06
2022-10-22T12:35:43.873Z,101250.41
2022-10-22T12:38:26.949Z,101243.28
2022-10-22T12:40:58.650Z,101246.78
2022-10-22T12:43:38.588Z,101237.97
2022-10-22T12:46:13.824Z,101253.75
2022-10-22T12:48:45.263Z,101242.41
2022-10-22T12:51:21.640Z,101260.84
2022-10-22T12:53:57.458Z,101252.16
2022-10-22T12:56:35.557Z,101254.75
2022-10-22T13:01:53.713Z,101258.78
2022-10-22T13:04:39.755Z,101247.97
2022-10-22T13:07:22.346Z,101265.00
2022-10-22T13:10:01.090Z,101254.16
2022-10-22T13:12:46.322Z,101265.34
2022-10-22T13:15:40.434Z,101262.84
2022-10-22T13:18:25.468Z,101265.59
2022-10-22T13:21:01.723Z,101262.03
2022-10-22T13:23:37.041Z,101266.19
2022-10-22T13:26:16.511Z,101262.97
2022-10-22T13:28:55.226Z,101266.91
2022-10-22T13:31:27.149Z,101268.84
2022-10-22T13:34:08.529Z,101276.88
2022-10-22T13:36:39.405Z,101277.84
2022-10-22T13:39:11.887Z,101283.00
2022-10-22T13:41:42.999Z,101282.84
2022-10-22T13:44:18.858Z,101278.53
2022-10-22T13:46:47.909Z,101282.91
2022-10-22T13:49:29.133Z,101274.09
2022-10-22T13:51:59.174Z,101279.16
2022-10-22T13:54:33.692Z,101272.84
2022-10-22T13:57:03.411Z,101289.53
2022-10-22T13:59:41.363Z,101291.81
2022-10-22T14:02:13.037Z,101290.38
2022-10-22T14:04:43.780Z,101283.38
2022-10-22T14:07:15.755Z,101286.72
2022-10-22T14:09:46.289Z,101283.16
2022-10-22T14:12:18.419Z,101290.13
2022-10-22T14:14:46.983Z,101286.63
2022-10-22T14:17:17.216Z,101282.28
2022-10-22T14:19:58.864Z,101294.50
2022-10-22T14:22:29.554Z,101304.25
2022-10-22T14:24:58.068Z,101306.88
2022-10-22T14:27:27.896Z,101298.69
2022-10-22T14:29:59.532Z,101299.41
2022-10-22T14:32:36.824Z,101307.69
2022-10-22T14:35:11.844Z,101307.28
2022-10-22T14:37:43.887Z,101304.16
2022-10-22T14:40:16.169Z,101306.09
2022-10-22T14:42:55.684Z,101316.91
2022-10-22T14:45:28.242Z,101311.25
2022-10-22T14:48:00.480Z,101306.06
2022-10-22T14:50:29.202Z,101310.44
2022-10-22T14:52:59.821Z,101315.66
2022-10-22T14:55:29.207Z,101314.66
2022-10-22T14:57:59.064Z,101316.19
2022-10-22T15:00:27.969Z,101316.00
2022-10-22T15:02:58.094Z,101318.41
2022-10-22T15:05:28.003Z,101319.22
2022-10-22T15:08:01.490Z,101332.25
2022-10-22T15:10:44.546Z,101327.06
2022-10-22T15:13:55.896Z,101332.41
2022-10-22T15:16:29.402Z,101326.34
2022-10-22T15:19:02.303Z,101329.00
2022-10-22T15:21:30.691Z,101335.28
2022-10-22T15:23:59.066Z,101341.44
2022-10-22T15:26:28.039Z,101340.88
2022-10-22T15:29:06.365Z,101345.66
2022-10-22T15:31:47.644Z,101348.78
2022-10-22T15:34:20.929Z,101361.38
2022-10-22T15:36:49.394Z,101366.97
2022-10-22T15:42:52.355Z,101372.81
2022-10-22T15:45:22.675Z,101371.25
2022-10-22T15:47:50.897Z,101384.69
2022-10-22T15:50:19.446Z,101370.91
2022-10-22T15:52:47.927Z,101387.78
2022-10-22T15:55:16.415Z,101380.94
2022-10-22T15:57:45.896Z,101374.19
2022-10-22T16:00:16.089Z,101383.06
2022-10-22T16:02:45.751Z,101392.00
2022-10-22T16:05:13.994Z,101399.13
2022-10-22T16:07:42.990Z,101396.59
2022-10-22T16:10:12.991Z,101393.22
2022-10-22T16:13:06.812Z,101389.84
2022-10-22T16:15:36.484Z,101397.03
2022-10-22T16:18:15.677Z,101391.00
2022-10-22T16:20:46.744Z,101412.22
2022-10-22T16:23:18.843Z,101406.19
2022-10-22T16:25:47.298Z,101412.47
2022-10-22T16:28:16.215Z,101393.25
2022-10-22T16:30:44.530Z,101401.28
2022-10-22T16:33:14.770Z,101403.06
2022-10-22T16:35:52.789Z,101409.25
2022-10-22T16:38:21.180Z,101409.38
2022-10-22T16:40:50.473Z,101406.00
2022-10-22T16:43:18.929Z,101420.06
2022-10-22T16:45:50.324Z,101421.03
2022-10-22T16:48:20.379Z,101418.47
2022-10-22T16:50:48.596Z,101406.25
2022-10-22T16:53:16.819Z,101424.72
2022-10-22T16:59:02.606Z,101416.91
2022-10-22T17:01:30.888Z,101432.72
2022-10-22T17:04:02.192Z,101424.00
2022-10-22T17:06:30.617Z,101427.59
2022-10-22T17:08:59.041Z,101444.31
2022-10-22T17:11:30.067Z,101432.91
2022-10-22T17:13:58.513Z,101443.44
2022-10-22T17:16:26.824Z,101450.50
2022-10-22T17:19:04.532Z,101451.31
2022-10-22T17:21:41.429Z,101459.25
2022-10-22T17:24:25.392Z,101463.66
2022-10-22T17:26:53.664Z,101460.13
2022-10-22T17:29:22.082Z,101469.81
2022-10-22T17:31:50.295Z,101462.78
2022-10-22T17:34:42.411Z,101450.47
2022-10-22T17:37:12.971Z,101471.53
2022-10-22T17:39:48.668Z,101470.66
2022-10-22T17:42:17.045Z,101476.84
2022-10-22T17:44:54.280Z,101473.34
2022-10-22T17:47:23.250Z,101481.25
2022-10-22T17:49:53.440Z,101482.16
2022-10-22T17:52:24.089Z,101480.38
2022-10-22T17:54:54.865Z,101492.72
2022-10-22T17:57:37.441Z,101483.94
2022-10-22T18:00:16.206Z,101492.69
2022-10-22T18:02:46.129Z,101494.47
2022-10-22T18:05:16.129Z,101497.09
2022-10-22T18:07:44.416Z,101495.38
2022-10-22T18:12:57.908Z,101495.34
2022-10-22T18:15:48.978Z,101506.75
2022-10-22T18:21:32.801Z,101497.94
2022-10-22T18:24:13.020Z,101506.72
2022-10-22T18:26:41.393Z,101504.97
2022-10-22T18:29:11.755Z,101497.06
2022-10-22T18:31:41.668Z,101506.69
2022-10-22T18:34:10.660Z,101503.13
2022-10-22T18:36:43.305Z,101514.53
2022-10-22T18:39:22.291Z,101493.44
2022-10-22T18:41:51.945Z,101511.00
2022-10-22T18:44:20.308Z,101502.19
2022-10-22T18:46:50.316Z,101524.13
2022-10-22T18:49:21.347Z,101523.22
2022-10-22T18:52:01.522Z,101517.97
2022-10-22T18:54:29.993Z,101520.56
2022-10-22T18:57:02.573Z,101522.31
2022-10-22T18:59:45.563Z,101521.41
2022-10-22T19:02:21.848Z,101532.78
2022-10-22T19:04:51.687Z,101523.16
2022-10-22T19:07:52.366Z,101519.63
2022-10-22T19:10:20.718Z,101521.38
2022-10-22T19:12:49.505Z,101519.56
2022-10-22T19:18:02.045Z,101519.59
2022-10-22T19:20:30.455Z,101518.72
2022-10-22T19:23:00.584Z,101508.16
2022-10-22T19:25:29.282Z,101518.72
2022-10-22T19:27:59.144Z,101517.84
2022-10-22T19:30:27.937Z,101523.06
2022-10-22T19:32:58.650Z,101511.66
2022-10-22T19:35:38.088Z,101523.91
2022-10-22T19:38:29.739Z,101505.47
2022-10-22T19:41:02.703Z,101528.25
2022-10-22T19:43:30.896Z,101530.03
2022-10-22T19:46:06.874Z,101538.75
2022-10-22T19:48:36.208Z,101534.41
2022-10-22T19:51:18.438Z,101527.34
2022-10-22T19:54:13.963Z,101537.84
2022-10-22T19:56:42.359Z,101537.84
2022-10-22T19:59:10.859Z,101542.22
2022-10-22T20:01:39.675Z,101542.19
2022-10-22T20:04:10.698Z,101541.31
2022-10-22T20:06:39.019Z,101529.84
2022-10-22T20:09:09.876Z,101546.44
2022-10-22T20:11:38.936Z,101532.41
2022-10-22T20:14:08.121Z,101542.03
2022-10-22T20:16:41.383Z,101542.88
2022-10-22T20:19:10.816Z,101535.81
2022-10-22T20:21:40.453Z,101544.59
2022-10-22T20:24:23.518Z,101542.78
2022-10-22T20:26:51.700Z,101556.84
2022-10-22T20:29:20.411Z,101550.69
2022-10-22T20:31:49.276Z,101542.78
2022-10-22T20:34:19.033Z,101538.41
2022-10-22T20:36:56.677Z,101549.00
2022-10-22T20:39:26.329Z,101549.91
2022-10-22T20:41:54.672Z,101537.59
2022-10-22T20:44:45.614Z,101535.84
2022-10-22T20:47:30.490Z,101542.00
2022-10-22T20:50:15.923Z,101545.50
2022-10-22T20:52:44.052Z,101548.13
2022-10-22T20:57:50.308Z,101547.25
2022-10-22T21:00:18.948Z,101547.28
2022-10-22T21:02:51.087Z,101556.94
2022-10-22T21:05:19.857Z,101548.16
2022-10-22T21:07:52.891Z,101537.59
2022-10-22T21:10:41.858Z,101549.91
2022-10-22T21:13:24.566Z,101550.88
2022-10-22T21:15:56.602Z,101536.88
2022-10-22T21:18:34.390Z,101530.72
2022-10-22T21:21:06.262Z,101535.09
2022-10-22T21:23:36.036Z,101543.00
2022-10-22T21:26:06.937Z,101537.75
2022-10-22T21:28:52.503Z,101541.25
2022-10-22T21:31:22.034Z,101542.16
2022-10-22T21:33:54.390Z,101544.78
2022-10-22T21:36:25.872Z,101538.66
2022-10-22T21:39:14.013Z,101541.31
2022-10-22T21:41:47.865Z,101536.03
2022-10-22T21:44:31.912Z,101541.31
2022-10-22T21:47:07.274Z,101544.84
2022-10-22T21:49:37.075Z,101546.63
2022-10-22T21:52:07.070Z,101543.09
2022-10-22T21:54:47.745Z,101549.22
2022-10-22T21:57:39.376Z,101539.53
2022-10-22T22:00:12.640Z,101549.19
2022-10-22T22:02:45.950Z,101545.66
2022-10-22T22:05:24.065Z,101552.63
2022-10-22T22:08:01.334Z,101549.16
2022-10-22T22:10:36.434Z,101541.22
2022-10-22T22:13:24.913Z,101549.09
2022-10-22T22:16:11.267Z,101548.19
2022-10-22T22:18:49.564Z,101556.03
2022-10-22T22:21:23.434Z,101550.75
2022-10-22T22:24:11.708Z,101549.88
2022-10-22T22:29:26.536Z,101549.00
2022-10-22T22:31:59.266Z,101554.25
2022-10-22T22:34:27.839Z,101563.00
2022-10-22T22:36:56.040Z,101568.28
2022-10-22T22:39:25.609Z,101563.00
2022-10-22T22:41:54.033Z,101564.78
2022-10-22T22:44:22.308Z,101554.25
2022-10-22T22:46:56.491Z,101554.25
2022-10-22T22:52:13.828Z,101558.59
2022-10-22T22:54:43.544Z,101561.25
2022-10-22T22:57:19.327Z,101555.97
2022-10-22T22:59:54.772Z,101549.78
2022-10-22T23:02:38.253Z,101548.03
2022-10-22T23:05:12.165Z,101551.56
2022-10-22T23:07:44.991Z,101551.53
2022-10-22T23:10:14.761Z,101550.59
2022-10-22T23:12:43.263Z,101546.19
2022-10-22T23:15:19.621Z,101542.72
2022-10-22T23:18:05.843Z,101557.63
2022-10-22T23:23:51.046Z,101551.44
2022-10-22T23:26:24.596Z,101557.56
2022-10-22T23:28:53.085Z,101546.09
2022-10-22T23:31:23.855Z,101542.63
2022-10-22T23:33:57.557Z,101545.25
2022-10-22T23:36:28.475Z,101546.13
2022-10-22T23:38:56.857Z,101547.00
2022-10-22T23:41:32.254Z,101541.81
2022-10-22T23:44:04.130Z,101527.69
2022-10-22T23:46:35.654Z,101527.75
2022-10-22T23:49:09.603Z,101527.75
2022-10-22T23:51:45.758Z,101518.09
2022-10-22T23:54:17.943Z,101525.16
2022-10-22T23:56:50.383Z,101532.19
2022-10-22T23:59:18.701Z,101524.31
